Time;durP1;ratioP1;P1;durP2;ratioP2;P2;SDS_P1;SDS_P2;PMS_P1;PMS_P2;Temp;Humidity;BMP_temperature;BMP_pressure;BME280_temperature;BME280_humidity;BME280_pressure;Samples;Min_cycle;Max_cycle;Signal;HPM_P1;HPM_P2
2023/07/05 00:00:23;;;;;;;11.38;5.97;;;;;;;14.92;100.00;100417.56;5056460;28;20032;-76
2023/07/05 00:02:53;;;;;;;9.23;5.57;;;;;;;14.87;100.00;100404.63;5062041;28;20035;-76
2023/07/05 00:05:18;;;;;;;6.80;5.25;;;;;;;14.87;100.00;100398.53;5056989;28;20029;-76
2023/07/05 00:07:43;;;;;;;9.10;5.57;;;;;;;14.83;100.00;100387.34;5060208;28;20025;-76
2023/07/05 00:10:10;;;;;;;7.00;4.93;;;;;;;14.80;100.00;100382.25;5057627;28;20470;-76
2023/07/05 00:12:35;;;;;;;8.13;4.82;;;;;;;14.75;100.00;100379.84;5059296;28;20067;-75
2023/07/05 00:15:01;;;;;;;7.05;4.40;;;;;;;14.73;100.00;100373.81;5057652;28;20049;-76
2023/07/05 00:17:26;;;;;;;7.65;4.63;;;;;;;14.80;100.00;100363.88;5059258;28;20056;-77
2023/07/05 00:19:53;;;;;;;8.25;5.22;;;;;;;14.82;100.00;100353.31;5057167;28;20043;-77
2023/07/05 00:22:19;;;;;;;9.45;5.20;;;;;;;14.74;100.00;100317.78;5055317;28;20416;-77
2023/07/05 00:24:45;;;;;;;8.27;4.85;;;;;;;14.73;100.00;100326.59;5057778;28;20056;-77
2023/07/05 00:27:12;;;;;;;7.55;4.43;;;;;;;14.75;100.00;100321.28;5055015;28;20021;-77
2023/07/05 00:29:37;;;;;;;7.53;4.70;;;;;;;14.73;100.00;100302.97;5056563;28;20087;-77
2023/07/05 00:32:03;;;;;;;11.63;5.00;;;;;;;14.78;100.00;100305.38;5061856;28;20037;-76
2023/07/05 00:34:28;;;;;;;5.57;4.60;;;;;;;14.82;100.00;100299.06;5058298;28;20112;-77
2023/07/05 00:36:54;;;;;;;6.88;4.85;;;;;;;14.79;100.00;100278.22;5059907;28;20036;-77
2023/07/05 00:39:20;;;;;;;9.80;4.90;;;;;;;14.74;100.00;100262.69;5060090;28;20028;-76
2023/07/05 00:41:45;;;;;;;9.35;5.10;;;;;;;14.68;100.00;100263.00;5059611;28;20037;-76
2023/07/05 00:44:13;;;;;;;6.82;4.70;;;;;;;14.66;100.00;100274.50;5057370;28;20043;-76
2023/07/05 00:46:45;;;;;;;10.77;4.78;;;;;;;14.62;100.00;100294.78;5060868;28;20060;-76
2023/07/05 00:49:18;;;;;;;7.07;4.78;;;;;;;14.65;100.00;100288.53;5056657;28;20029;-76
2023/07/05 00:52:01;;;;;;;11.43;5.10;;;;;;;14.60;100.00;100280.03;5060824;28;20025;-76
2023/07/05 00:54:39;;;;;;;;;;;;;;;14.61;100.00;100276.50;5057959;28;20029;-76
2023/07/05 00:57:07;;;;;;;7.57;4.82;;;;;;;14.62;100.00;100271.19;5051623;28;19924;-76
2023/07/05 00:59:39;;;;;;;5.82;4.03;;;;;;;14.66;100.00;100274.50;5052122;28;20029;-77
2023/07/05 01:02:05;;;;;;;7.32;4.80;;;;;;;14.56;100.00;100258.38;5049073;28;20049;-77
2023/07/05 01:04:32;;;;;;;8.55;4.65;;;;;;;14.59;100.00;100268.72;5050737;28;20064;-76
2023/07/05 01:06:58;;;;;;;10.65;5.63;;;;;;;14.61;100.00;100258.97;5051860;28;20025;-76
2023/07/05 01:09:26;;;;;;;7.30;5.07;;;;;;;14.65;100.00;100249.16;5051525;28;20028;-75
2023/07/05 01:12:06;;;;;;;12.32;5.03;;;;;;;14.66;100.00;100243.03;5051211;28;20107;-76
2023/07/05 01:14:56;;;;;;;5.85;4.70;;;;;;;14.68;100.00;100252.53;5047822;28;20381;-76
2023/07/05 01:17:48;;;;;;;10.75;5.40;;;;;;;14.64;100.00;100256.19;5046598;28;20029;-77
2023/07/05 01:20:16;;;;;;;11.15;5.47;;;;;;;14.65;100.00;100247.41;5054583;28;20040;-77
2023/07/05 01:23:19;;;;;;;10.55;4.70;;;;;;;14.62;100.00;100242.31;5055274;28;20025;-76
2023/07/05 01:26:02;;;;;;;6.30;4.63;;;;;;;14.61;100.00;100242.38;5048647;28;20033;-77
2023/07/05 01:28:46;;;;;;;;;;;;;;;14.65;100.00;100252.66;5055592;28;20060;-77
2023/07/05 01:31:33;;;;;;;7.97;4.72;;;;;;;14.69;100.00;100254.22;5055421;28;19924;-76
2023/07/05 01:34:10;;;;;;;7.85;4.70;;;;;;;14.70;100.00;100255.91;5049336;28;20044;-77
2023/07/05 01:36:36;;;;;;;6.75;4.72;;;;;;;14.66;100.00;100261.38;5054945;28;20029;-76
2023/07/05 01:39:02;;;;;;;8.25;4.20;;;;;;;14.63;100.00;100258.91;5054348;28;20036;-75
2023/07/05 01:41:28;;;;;;;7.82;4.93;;;;;;;14.62;100.00;100260.69;5054787;28;20029;-76
2023/07/05 01:43:53;;;;;;;9.70;4.90;;;;;;;14.65;100.00;100263.16;5055035;28;20089;-76
2023/07/05 01:46:27;;;;;;;7.60;4.38;;;;;;;14.65;100.00;100265.78;5054381;28;20029;-76
2023/07/05 01:49:28;;;;;;;7.68;4.30;;;;;;;14.65;100.00;100268.41;5053198;28;20155;-75
2023/07/05 01:51:59;;;;;;;8.25;4.22;;;;;;;14.62;100.00;100278.22;5045427;28;20788;-75
2023/07/05 01:54:33;;;;;;;6.57;4.28;;;;;;;14.56;100.00;100278.50;5049326;28;20492;-76
2023/07/05 01:57:21;;;;;;;5.50;4.13;;;;;;;14.52;100.00;100288.31;5050194;28;20036;-76
2023/07/05 01:59:57;;;;;;;7.75;4.05;;;;;;;14.50;100.00;100292.72;5054164;28;20468;-75
2023/07/05 02:02:28;;;;;;;6.88;4.20;;;;;;;14.48;100.00;100302.44;5054603;28;20025;-75
2023/07/05 02:04:55;;;;;;;7.18;4.10;;;;;;;14.41;100.00;100309.75;5054683;28;20029;-75
2023/07/05 02:07:26;;;;;;;8.48;3.88;;;;;;;14.34;100.00;100312.75;5053686;28;20024;-75
2023/07/05 02:09:51;;;;;;;8.32;3.13;;;;;;;14.11;100.00;100333.00;5054335;28;20036;-75
2023/07/05 02:12:17;;;;;;;4.72;2.88;;;;;;;13.88;100.00;100327.97;5054865;28;20369;-75
2023/07/05 02:14:42;;;;;;;3.88;2.50;;;;;;;13.74;100.00;100344.31;5053571;28;20094;-75
2023/07/05 02:17:07;;;;;;;3.38;2.45;;;;;;;13.55;100.00;100336.41;5054554;28;20021;-75
2023/07/05 02:19:33;;;;;;;5.32;3.03;;;;;;;13.46;100.00;100352.53;5054242;28;20037;-75
2023/07/05 02:21:58;;;;;;;4.82;2.55;;;;;;;13.40;100.00;100356.25;5053644;28;20167;-75
2023/07/05 02:24:24;;;;;;;8.60;2.75;;;;;;;13.25;100.00;100370.84;5053810;28;20025;-75
2023/07/05 02:26:53;;;;;;;5.13;2.88;;;;;;;13.16;100.00;100363.34;5054516;28;20032;-74
2023/07/05 02:29:18;;;;;;;2.92;2.63;;;;;;;13.16;100.00;100370.34;5053223;28;20053;-75
2023/07/05 02:31:44;;;;;;;4.60;2.85;;;;;;;13.10;100.00;100381.91;5054275;28;20112;-74
2023/07/05 02:34:11;;;;;;;5.68;3.22;;;;;;;12.96;100.00;100384.25;5054306;28;20484;-74
2023/07/05 02:36:36;;;;;;;8.05;3.15;;;;;;;12.85;100.00;100387.28;5053112;28;20032;-75
2023/07/05 02:39:01;;;;;;;4.80;3.30;;;;;;;12.73;100.00;100399.09;5054084;28;20028;-75
2023/07/05 02:41:27;;;;;;;6.65;3.72;;;;;;;12.66;100.00;100389.81;5053224;28;20102;-74
2023/07/05 02:43:52;;;;;;;9.40;3.88;;;;;;;12.54;100.00;100388.50;5053421;28;20039;-75
2023/07/05 02:46:17;;;;;;;10.80;3.40;;;;;;;12.44;100.00;100387.16;5053928;28;20111;-75
2023/07/05 02:48:45;;;;;;;5.55;3.30;;;;;;;12.38;100.00;100398.69;5053544;28;20376;-75
2023/07/05 02:51:10;;;;;;;8.13;3.78;;;;;;;12.37;100.00;100391.78;5053257;28;20472;-75
2023/07/05 02:53:36;;;;;;;7.05;3.70;;;;;;;12.43;100.00;100390.69;5053123;28;20074;-75
2023/07/05 02:56:01;;;;;;;5.15;3.70;;;;;;;12.36;100.00;100386.59;5053480;28;20025;-75
2023/07/05 02:58:26;;;;;;;7.25;3.55;;;;;;;12.29;100.00;100383.34;5052765;28;20029;-74
2023/07/05 03:00:51;;;;;;;7.05;3.72;;;;;;;12.26;100.00;100380.88;5053659;28;20033;-74
2023/07/05 03:03:17;;;;;;;6.10;3.67;;;;;;;12.21;100.00;100381.97;5053066;28;20098;-75
2023/07/05 03:05:42;;;;;;;7.90;4.22;;;;;;;12.10;100.00;100377.13;5053017;28;20044;-74
2023/07/05 03:08:07;;;;;;;7.25;3.83;;;;;;;12.07;100.00;100395.53;5053207;28;20029;-75
2023/07/05 03:10:37;;;;;;;8.55;4.32;;;;;;;11.98;100.00;100385.41;5052297;28;20033;-75
2023/07/05 03:13:02;;;;;;;7.40;4.05;;;;;;;11.94;100.00;100393.38;5051801;28;20028;-75
2023/07/05 03:15:27;;;;;;;8.02;4.03;;;;;;;11.89;100.00;100397.03;5053205;28;20032;-75
2023/07/05 03:17:53;;;;;;;7.50;4.30;;;;;;;11.85;100.00;100390.22;5052528;28;20127;-74
2023/07/05 03:20:19;;;;;;;9.82;4.78;;;;;;;11.89;100.00;100390.06;5053463;28;20036;-74
2023/07/05 03:22:44;;;;;;;7.72;4.25;;;;;;;11.91;100.00;100393.47;5052740;28;20028;-74
2023/07/05 03:25:10;;;;;;;7.18;4.40;;;;;;;11.93;100.00;100391.66;5052549;28;20029;-74
2023/07/05 03:27:35;;;;;;;7.85;4.53;;;;;;;11.94;100.00;100385.53;5052986;28;20021;-74
2023/07/05 03:30:00;;;;;;;8.23;4.70;;;;;;;11.93;100.00;100389.06;5052968;28;20059;-74
2023/07/05 03:32:26;;;;;;;7.78;4.85;;;;;;;11.88;100.00;100388.38;5052133;28;20098;-74
2023/07/05 03:34:51;;;;;;;9.73;5.18;;;;;;;11.90;100.00;100390.91;5052773;28;20457;-74
2023/07/05 03:37:17;;;;;;;11.90;5.15;;;;;;;11.90;100.00;100381.34;5052559;28;20044;-74
2023/07/05 03:39:42;;;;;;;7.32;5.10;;;;;;;11.86;100.00;100390.16;5051375;28;20041;-74
2023/07/05 03:42:07;;;;;;;9.07;5.07;;;;;;;11.90;100.00;100390.91;5052977;28;20029;-74
2023/07/05 03:44:33;;;;;;;8.95;5.30;;;;;;;11.89;100.00;100389.22;5052517;28;20029;-74
2023/07/05 03:46:58;;;;;;;9.13;5.28;;;;;;;11.89;100.00;100383.97;5052277;28;20049;-74
2023/07/05 03:49:23;;;;;;;10.65;5.05;;;;;;;11.89;100.00;100392.66;5052351;28;20483;-74
2023/07/05 03:51:48;;;;;;;9.23;5.15;;;;;;;11.91;100.00;100384.78;5052405;28;20037;-74
2023/07/05 03:54:14;;;;;;;8.32;4.97;;;;;;;11.87;100.00;100391.88;5052112;28;20025;-74
2023/07/05 03:56:39;;;;;;;9.00;4.93;;;;;;;11.93;100.00;100386.44;5052092;28;20029;-74
2023/07/05 03:59:04;;;;;;;7.47;5.32;;;;;;;11.98;100.00;100388.03;5052552;28;20052;-74
2023/07/05 04:01:31;;;;;;;12.23;5.32;;;;;;;11.98;100.00;100375.81;5052095;28;20033;-74
2023/07/05 04:03:58;;;;;;;8.57;5.15;;;;;;;12.00;100.00;100381.84;5052348;28;20033;-74
2023/07/05 04:06:26;;;;;;;8.10;4.72;;;;;;;11.95;100.00;100370.69;5052176;28;20021;-74
2023/07/05 04:08:52;;;;;;;9.43;5.10;;;;;;;11.92;100.00;100376.88;5051890;28;20036;-74
2023/07/05 04:11:17;;;;;;;11.30;5.32;;;;;;;11.95;100.00;100379.38;5052472;28;20021;-74
2023/07/05 04:13:44;;;;;;;9.77;4.82;;;;;;;12.02;100.00;100381.78;5051328;28;20392;-74
2023/07/05 04:16:15;;;;;;;7.20;4.97;;;;;;;12.08;100.00;100386.78;5052516;28;20096;-74
2023/07/05 04:18:42;;;;;;;10.75;5.55;;;;;;;12.17;100.00;100379.47;5052063;28;20020;-75
2023/07/05 04:21:07;;;;;;;7.50;4.88;;;;;;;12.28;100.00;100383.44;5051096;28;20120;-74
2023/07/05 04:23:34;;;;;;;7.13;4.80;;;;;;;12.35;100.00;100380.50;5052296;28;20039;-74
2023/07/05 04:26:05;;;;;;;7.53;4.78;;;;;;;12.44;100.00;100396.78;5052486;28;20107;-74
2023/07/05 04:28:32;;;;;;;10.57;5.18;;;;;;;12.49;100.00;100400.03;5043217;28;20029;-74
2023/07/05 04:30:57;;;;;;;7.80;4.65;;;;;;;12.52;100.00;100398.16;5051989;28;20081;-74
2023/07/05 04:33:23;;;;;;;6.70;4.55;;;;;;;12.51;100.00;100387.78;5051807;28;20101;-74
2023/07/05 04:35:50;;;;;;;8.65;4.60;;;;;;;12.55;100.00;100405.03;5051404;28;20477;-74
2023/07/05 04:38:16;;;;;;;8.60;5.20;;;;;;;12.54;100.00;100387.66;5052214;28;20074;-74
2023/07/05 04:40:42;;;;;;;10.63;5.47;;;;;;;12.53;100.00;100370.28;5043264;28;20029;-74
2023/07/05 04:43:07;;;;;;;10.80;4.57;;;;;;;12.56;100.00;100393.69;5051354;28;20033;-74
2023/07/05 04:45:33;;;;;;;9.20;4.72;;;;;;;12.58;100.00;100394.47;5051771;28;20033;-74
2023/07/05 04:47:58;;;;;;;7.25;4.40;;;;;;;12.60;100.00;100383.03;5051754;28;20075;-75
2023/07/05 04:50:23;;;;;;;8.68;4.68;;;;;;;12.63;100.00;100388.16;5051236;28;20040;-74
2023/07/05 04:52:49;;;;;;;11.25;4.68;;;;;;;12.59;100.00;100389.19;5055905;28;20037;-75
2023/07/05 04:55:14;;;;;;;7.93;4.80;;;;;;;12.58;100.00;100391.84;5055997;28;20111;-74
2023/07/05 04:57:42;;;;;;;7.25;4.47;;;;;;;12.63;100.00;100395.16;5055282;28;20074;-74
2023/07/05 05:00:08;;;;;;;10.05;4.70;;;;;;;12.76;100.00;100393.75;5055912;28;20032;-74
2023/07/05 05:02:34;;;;;;;5.85;4.32;;;;;;;12.74;100.00;100403.41;5055721;28;20021;-74
2023/07/05 05:04:59;;;;;;;6.93;4.35;;;;;;;12.75;100.00;100406.88;5055149;28;20046;-74
2023/07/05 05:07:25;;;;;;;7.32;4.80;;;;;;;12.76;100.00;100406.84;5049746;28;20032;-74
2023/07/05 05:09:50;;;;;;;7.20;4.47;;;;;;;12.83;100.00;100403.06;5055025;28;20370;-74
2023/07/05 05:12:15;;;;;;;7.30;4.45;;;;;;;12.92;100.00;100412.31;5056008;28;20059;-74
2023/07/05 05:14:41;;;;;;;7.15;4.63;;;;;;;12.97;100.00;100406.88;5055276;28;20104;-75
2023/07/05 05:17:06;;;;;;;8.50;4.38;;;;;;;12.91;100.00;100405.34;5054979;28;20414;-74
2023/07/05 05:19:32;;;;;;;7.00;4.30;;;;;;;12.92;100.00;100414.09;5054963;28;20473;-75
2023/07/05 05:21:57;;;;;;;9.90;4.55;;;;;;;12.86;100.00;100408.16;5055782;28;20051;-75
2023/07/05 05:24:22;;;;;;;7.78;4.15;;;;;;;12.84;100.00;100412.59;5054509;28;20017;-74
2023/07/05 05:26:48;;;;;;;10.18;4.10;;;;;;;12.89;100.00;100418.50;5055305;28;20024;-74
2023/07/05 05:29:13;;;;;;;7.45;3.50;;;;;;;12.88;100.00;100408.97;5055111;28;20094;-74
2023/07/05 05:31:38;;;;;;;5.55;4.20;;;;;;;12.87;100.00;100412.47;5054098;28;20032;-74
2023/07/05 05:34:04;;;;;;;8.38;4.57;;;;;;;12.91;100.00;100407.97;5055166;28;20032;-74
2023/07/05 05:36:29;;;;;;;9.77;3.90;;;;;;;12.85;100.00;100403.84;5054566;28;20029;-74
2023/07/05 05:38:55;;;;;;;10.57;4.32;;;;;;;12.81;100.00;100398.78;5054804;28;20033;-75
2023/07/05 05:41:20;;;;;;;6.53;3.97;;;;;;;12.92;100.00;100412.31;5055002;28;20036;-74
2023/07/05 05:43:46;;;;;;;6.97;4.10;;;;;;;12.92;100.00;100422.78;5054620;28;20104;-74
2023/07/05 05:46:11;;;;;;;9.38;3.85;;;;;;;12.94;100.00;100413.09;5054611;28;20025;-74
2023/07/05 05:48:37;;;;;;;4.78;3.78;;;;;;;12.95;100.00;100420.03;5054411;28;20112;-74
2023/07/05 05:51:02;;;;;;;7.65;3.90;;;;;;;12.94;100.00;100430.56;5054949;28;20043;-74
2023/07/05 05:53:27;;;;;;;5.90;4.00;;;;;;;13.01;100.00;100424.16;5054129;28;20016;-74
2023/07/05 05:55:56;;;;;;;7.07;3.97;;;;;;;13.05;100.00;100439.69;5055047;28;20476;-74
2023/07/05 05:58:21;;;;;;;8.20;4.03;;;;;;;13.04;100.00;100429.28;5054528;28;20021;-74
2023/07/05 06:00:47;;;;;;;5.85;4.00;;;;;;;13.12;100.00;100437.69;5053925;28;20040;-74
2023/07/05 06:03:12;;;;;;;9.63;3.92;;;;;;;13.13;100.00;100449.84;5054335;28;20029;-74
2023/07/05 06:05:38;;;;;;;4.97;3.80;;;;;;;12.99;100.00;100452.16;5051911;28;20476;-74
2023/07/05 06:08:03;;;;;;;8.98;3.88;;;;;;;12.88;100.00;100453.44;5053885;28;20033;-74
2023/07/05 06:10:29;;;;;;;6.22;3.72;;;;;;;12.91;100.00;100467.31;5054089;28;20464;-74
2023/07/05 06:12:54;;;;;;;8.02;3.83;;;;;;;13.11;100.00;100468.25;5049892;28;20029;-74
2023/07/05 06:15:19;;;;;;;7.40;3.83;;;;;;;13.26;100.00;100465.94;5054030;28;20057;-74
2023/07/05 06:17:45;;;;;;;6.40;3.22;;;;;;;13.30;100.00;100480.59;5053934;28;20021;-75
2023/07/05 06:20:10;;;;;;;7.35;3.25;;;;;;;13.25;100.00;100467.72;5053561;28;20049;-74
2023/07/05 06:22:37;;;;;;;6.38;3.33;;;;;;;13.16;100.00;100468.03;5050533;28;20625;-74
2023/07/05 06:25:03;;;;;;;8.07;3.47;;;;;;;13.16;100.00;100496.84;5059303;28;20021;-74
2023/07/05 06:27:28;;;;;;;8.93;3.20;;;;;;;13.35;100.00;100487.38;5048214;28;20033;-75
2023/07/05 06:29:54;;;;;;;7.00;3.35;;;;;;;13.59;100.00;100480.25;5048618;28;20052;-75
2023/07/05 06:32:19;;;;;;;6.47;3.53;;;;;;;13.74;100.00;100483.16;5052588;28;20021;-75
2023/07/05 06:34:44;;;;;;;7.35;3.47;;;;;;;13.84;100.00;100462.66;5056066;28;20037;-75
2023/07/05 06:37:10;;;;;;;5.32;3.28;;;;;;;14.08;100.00;100490.41;5054107;28;20033;-74
2023/07/05 06:39:37;;;;;;;5.78;3.20;;;;;;;14.39;100.00;100491.72;5053456;28;20052;-75
2023/07/05 06:42:03;;;;;;;7.68;3.10;;;;;;;14.44;100.00;100494.97;5053191;28;20388;-75
2023/07/05 06:44:28;;;;;;;7.40;3.63;;;;;;;14.37;100.00;100486.53;5052252;28;20037;-75
2023/07/05 06:46:53;;;;;;;10.35;3.60;;;;;;;14.39;100.00;100483.84;5053303;28;20032;-75
2023/07/05 06:49:19;;;;;;;7.85;3.50;;;;;;;14.53;100.00;100510.31;5055562;28;20024;-74
2023/07/05 06:51:44;;;;;;;9.32;3.10;;;;;;;14.60;100.00;100513.50;5052816;28;20138;-74
2023/07/05 06:54:10;;;;;;;5.72;3.42;;;;;;;14.62;100.00;100504.66;5051738;28;20078;-74
2023/07/05 06:56:35;;;;;;;7.63;3.30;;;;;;;14.73;100.00;100512.03;5051004;28;20029;-74
2023/07/05 06:59:01;;;;;;;4.72;3.40;;;;;;;14.81;100.00;100528.25;5056541;28;20384;-74
2023/07/05 07:01:26;;;;;;;8.32;3.20;;;;;;;14.83;100.00;100536.09;5050832;28;20094;-74
2023/07/05 07:03:51;;;;;;;7.72;4.63;;;;;;;14.97;100.00;100536.28;5052720;28;20033;-72
2023/07/05 07:06:17;;;;;;;7.97;3.00;;;;;;;15.12;100.00;100534.72;5053732;28;20021;-73
2023/07/05 07:08:42;;;;;;;4.50;2.80;;;;;;;15.18;100.00;100535.28;5052736;28;20025;-72
2023/07/05 07:11:10;;;;;;;7.82;2.78;;;;;;;14.98;100.00;100559.84;5052529;28;20036;-72
2023/07/05 07:13:35;;;;;;;6.20;2.90;;;;;;;15.01;100.00;100553.63;5052116;28;20380;-72
2023/07/05 07:16:06;;;;;;;4.20;2.25;;;;;;;15.07;97.90;100513.94;5052721;28;20472;-72
2023/07/05 07:18:32;;;;;;;6.65;2.80;;;;;;;14.91;100.00;100550.56;5052374;28;20025;-72
2023/07/05 07:20:59;;;;;;;4.20;2.50;;;;;;;14.82;100.00;100550.97;5053110;28;20031;-72
2023/07/05 07:23:25;;;;;;;6.72;3.00;;;;;;;14.63;100.00;100573.72;5052510;28;20017;-72
2023/07/05 07:26:18;;;;;;;6.70;2.75;;;;;;;14.13;100.00;100587.22;5052952;28;20098;-72
2023/07/05 07:28:49;;;;;;;5.85;3.13;;;;;;;13.83;100.00;100577.06;5046037;28;20094;-72
2023/07/05 07:31:20;;;;;;;4.07;2.97;;;;;;;13.38;100.00;100606.84;5052419;28;20040;-72
2023/07/05 07:33:46;;;;;;;7.22;3.40;;;;;;;13.03;100.00;100601.13;5052998;28;20027;-72
2023/07/05 07:36:17;;;;;;;6.68;3.60;;;;;;;13.00;100.00;100597.78;5052551;28;20028;-72
2023/07/05 07:38:43;;;;;;;5.50;3.50;;;;;;;12.91;100.00;100611.19;5044257;28;20033;-72
2023/07/05 07:41:14;;;;;;;7.90;3.38;;;;;;;12.76;100.00;100618.72;5053042;28;20041;-73
2023/07/05 07:43:39;;;;;;;9.57;4.03;;;;;;;12.67;100.00;100626.03;5051984;28;20112;-73
2023/07/05 07:46:13;;;;;;;5.88;3.65;;;;;;;12.70;100.00;100624.16;5052182;28;20108;-72
2023/07/05 07:48:40;;;;;;;7.57;4.07;;;;;;;12.61;100.00;100641.00;5052252;28;20017;-72
2023/07/05 07:51:05;;;;;;;4.80;3.45;;;;;;;12.52;100.00;100633.47;5052387;28;20029;-73
2023/07/05 07:53:31;;;;;;;6.72;3.95;;;;;;;12.54;100.00;100644.75;5051822;28;20070;-75
2023/07/05 07:55:57;;;;;;;6.72;4.00;;;;;;;12.61;100.00;100643.63;5052849;28;20033;-75
2023/07/05 07:58:22;;;;;;;7.75;4.70;;;;;;;12.74;100.00;100646.66;5052226;28;20029;-76
2023/07/05 08:00:48;;;;;;;6.30;3.83;;;;;;;12.71;100.00;100638.09;5052127;28;20523;-76
2023/07/05 08:03:13;;;;;;;7.57;4.10;;;;;;;12.59;100.00;100640.25;5052778;28;20464;-76
2023/07/05 08:05:38;;;;;;;6.95;3.90;;;;;;;12.51;100.00;100634.41;5051601;28;20520;-76
2023/07/05 08:08:04;;;;;;;7.68;4.40;;;;;;;12.36;100.00;100646.25;5052479;28;20439;-76
2023/07/05 08:10:29;;;;;;;7.30;4.15;;;;;;;12.31;100.00;100650.78;5051957;28;20033;-76
2023/07/05 08:12:54;;;;;;;7.45;4.10;;;;;;;12.31;100.00;100642.09;5051265;28;20178;-75
2023/07/05 08:15:19;;;;;;;7.45;4.30;;;;;;;12.39;100.00;100642.66;5052232;28;20115;-75
2023/07/05 08:17:45;;;;;;;8.52;4.53;;;;;;;12.57;100.00;100649.03;5051872;28;20103;-75
2023/07/05 08:20:13;;;;;;;10.02;4.15;;;;;;;12.80;100.00;100646.47;5051694;28;20029;-75
2023/07/05 08:22:38;;;;;;;6.80;4.30;;;;;;;13.10;100.00;100670.66;5051700;28;20029;-75
2023/07/05 08:25:04;;;;;;;9.10;5.35;;;;;;;13.28;100.00;100656.09;5051989;28;20090;-75
2023/07/05 08:27:29;;;;;;;8.75;4.20;;;;;;;13.61;100.00;100654.84;5051286;28;20500;-75
2023/07/05 08:29:54;;;;;;;7.57;4.53;;;;;;;13.66;100.00;100661.59;5051579;28;20053;-75
2023/07/05 08:32:21;;;;;;;10.27;4.45;;;;;;;13.61;100.00;100668.78;5052098;28;20034;-75
2023/07/05 08:34:47;;;;;;;7.07;4.40;;;;;;;13.89;100.00;100671.16;5051101;28;20053;-74
2023/07/05 08:37:12;;;;;;;9.60;4.45;;;;;;;14.00;100.00;100679.47;5052318;28;20528;-74
2023/07/05 08:39:37;;;;;;;6.80;4.68;;;;;;;14.03;100.00;100689.84;5051292;28;20033;-75
2023/07/05 08:42:23;;;;;;;12.48;4.93;;;;;;;14.26;100.00;100699.38;5051455;28;20362;-75
2023/07/05 08:45:09;;;;;;;6.95;4.75;;;;;;;14.56;100.00;100699.06;5047730;28;20029;-75
2023/07/05 08:47:57;;;;;;;8.57;4.80;;;;;;;14.82;100.00;100704.97;5051514;28;20056;-75
2023/07/05 08:50:39;;;;;;;10.05;4.45;;;;;;;15.19;100.00;100710.28;5051747;28;20055;-75
2023/07/05 08:53:19;;;;;;;7.60;4.40;;;;;;;15.33;100.00;100714.91;5045674;28;20037;-75
2023/07/05 08:56:09;;;;;;;6.68;4.10;;;;;;;15.52;100.00;100712.31;5049838;28;20029;-74
2023/07/05 08:58:41;;;;;;;11.65;5.68;;;;;;;15.77;100.00;100722.59;5051658;28;20348;-74
2023/07/05 09:01:15;;;;;;;7.53;4.00;;;;;;;15.87;100.00;100713.34;5051671;28;20021;-75
2023/07/05 09:03:40;;;;;;;;;;;;;;;15.94;100.00;100724.41;5051394;28;20036;-74
2023/07/05 09:06:32;;;;;;;6.50;4.57;;;;;;;16.02;100.00;100693.34;5052072;28;20322;-74
2023/07/05 09:09:35;;;;;;;7.75;3.65;;;;;;;16.20;100.00;100732.81;5051005;28;20274;-75
2023/07/05 09:12:00;;;;;;;12.32;4.32;;;;;;;16.45;100.00;100735.97;5043044;28;20041;-74
2023/07/05 09:14:36;;;;;;;10.07;3.90;;;;;;;17.04;100.00;100747.91;5051175;28;20023;-74
2023/07/05 09:17:14;;;;;;;12.25;3.83;;;;;;;17.03;97.75;100777.78;5050923;28;20033;-75
2023/07/05 09:19:56;;;;;;;7.85;3.22;;;;;;;16.81;95.06;100758.78;5049542;28;20025;-74
2023/07/05 09:22:28;;;;;;;11.95;3.75;;;;;;;16.97;96.41;100762.31;5048953;28;20032;-74
2023/07/05 09:24:55;;;;;;;6.57;3.60;;;;;;;16.91;100.00;100749.47;5050677;28;20050;-74
2023/07/05 09:27:30;;;;;;;6.97;3.63;;;;;;;16.81;100.00;100753.50;5051458;28;20029;-74
2023/07/05 09:29:59;;;;;;;4.78;3.10;;;;;;;16.98;97.53;100771.06;5051117;28;20071;-74
2023/07/05 09:32:35;;;;;;;6.43;2.92;;;;;;;17.23;99.55;100789.97;5050470;28;20040;-74
2023/07/05 09:35:01;;;;;;;4.68;2.72;;;;;;;17.22;92.99;100779.47;5051509;28;20029;-74
2023/07/05 09:37:32;;;;;;;6.10;3.00;;;;;;;17.18;92.17;100776.16;5052077;28;20495;-74
2023/07/05 09:40:22;;;;;;;8.45;3.25;;;;;;;17.49;90.90;100774.53;5054855;28;20025;-75
2023/07/05 09:42:55;;;;;;;9.77;3.35;;;;;;;17.83;90.66;100805.25;5048039;28;20123;-75
2023/07/05 09:45:20;;;;;;;10.98;2.78;;;;;;;18.14;78.41;100779.81;5051588;28;20021;-74
2023/07/05 09:47:50;;;;;;;7.32;2.28;;;;;;;18.07;81.94;100795.13;5054749;28;20433;-75
2023/07/05 09:50:20;;;;;;;10.98;2.47;;;;;;;18.25;80.02;100794.13;5054550;28;20103;-74
2023/07/05 09:52:49;;;;;;;12.75;2.55;;;;;;;18.35;73.43;100801.53;5053600;28;20029;-74
2023/07/05 09:55:17;;;;;;;17.13;2.78;;;;;;;18.48;73.27;100816.56;5054883;28;20040;-74
2023/07/05 09:57:45;;;;;;;10.63;2.47;;;;;;;18.61;74.11;100821.16;5054274;28;20098;-74
2023/07/05 10:00:24;;;;;;;9.18;2.53;;;;;;;18.82;72.31;100819.94;5052884;28;20032;-74
2023/07/05 10:02:52;;;;;;;8.77;2.00;;;;;;;19.00;69.58;100838.28;5053803;28;20064;-74
2023/07/05 10:05:28;;;;;;;11.25;3.17;;;;;;;19.09;72.33;100817.44;5062758;28;20033;-74
2023/07/05 10:08:00;;;;;;;8.75;2.17;;;;;;;18.99;63.68;100816.31;5050397;28;20389;-72
2023/07/05 10:10:37;;;;;;;10.05;2.40;;;;;;;18.99;66.85;100849.81;5053801;28;20119;-73
2023/07/05 10:13:19;;;;;;;9.23;2.50;;;;;;;18.94;71.71;100850.94;5052554;28;20040;-73
2023/07/05 10:15:57;;;;;;;15.70;2.42;;;;;;;19.12;65.33;100840.22;5054287;28;20028;-72
2023/07/05 10:18:41;;;;;;;12.00;2.33;;;;;;;19.00;67.92;100856.78;5052541;28;20039;-73
2023/07/05 10:21:19;;;;;;;6.15;1.95;;;;;;;18.97;67.17;100864.91;5053712;28;20044;-72
2023/07/05 10:23:45;;;;;;;10.35;2.38;;;;;;;19.10;70.89;100879.09;5053809;28;20104;-73
2023/07/05 10:26:11;;;;;;;12.05;2.42;;;;;;;19.01;64.19;100866.44;5051313;28;20456;-72
2023/07/05 10:28:40;;;;;;;7.68;2.50;;;;;;;18.89;66.34;100878.53;5054147;28;20112;-72
2023/07/05 10:31:05;;;;;;;10.77;1.98;;;;;;;18.77;63.55;100885.41;5057820;28;20063;-72
2023/07/05 10:33:33;;;;;;;6.78;2.30;;;;;;;18.73;69.80;100894.41;5053200;28;20037;-72
2023/07/05 10:36:03;;;;;;;6.55;1.95;;;;;;;18.73;64.26;100897.03;5055862;28;20025;-72
2023/07/05 10:38:33;;;;;;;6.72;1.60;;;;;;;18.91;68.07;100884.59;5050910;28;20024;-72
2023/07/05 10:41:20;;;;;;;10.23;2.05;;;;;;;19.08;66.11;100895.03;5051888;28;20024;-73
2023/07/05 10:44:06;;;;;;;11.55;2.10;;;;;;;19.43;61.14;100900.03;5050929;28;20037;-73
2023/07/05 10:46:35;;;;;;;8.85;2.15;;;;;;;19.45;58.62;100894.66;5050953;28;20027;-72
2023/07/05 10:49:02;;;;;;;10.23;2.30;;;;;;;19.63;58.05;100904.13;5052125;28;20028;-73
2023/07/05 10:51:33;;;;;;;13.23;2.30;;;;;;;19.92;56.84;100912.97;5052960;28;20480;-73
2023/07/05 10:54:17;;;;;;;9.27;2.20;;;;;;;20.37;58.38;100902.25;5052775;28;20124;-73
2023/07/05 10:56:44;;;;;;;14.95;2.95;;;;;;;20.35;54.02;100911.16;5051070;28;20029;-73
2023/07/05 10:59:31;;;;;;;19.52;2.78;;;;;;;19.94;57.20;100926.09;5053589;28;20025;-73
2023/07/05 11:02:26;;;;;;;15.13;2.50;;;;;;;19.60;57.42;100920.19;5052986;28;20048;-73
2023/07/05 11:04:53;;;;;;;6.05;2.15;;;;;;;19.54;61.31;100921.41;5051348;28;20075;-73
2023/07/05 11:07:21;;;;;;;13.25;2.50;;;;;;;19.59;61.72;100911.41;5053094;28;20029;-73
2023/07/05 11:09:46;;;;;;;7.57;2.50;;;;;;;19.32;57.14;100929.75;5052350;28;20025;-73
2023/07/05 11:12:25;;;;;;;8.18;2.28;;;;;;;19.18;62.25;100937.63;5046613;28;20483;-73
2023/07/05 11:14:51;;;;;;;15.68;2.72;;;;;;;19.55;59.83;100935.47;5049638;28;20039;-73
2023/07/05 11:17:37;;;;;;;11.80;2.17;;;;;;;19.67;56.80;100934.78;5046053;28;20031;-73
2023/07/05 11:20:42;;;;;;;22.98;2.60;;;;;;;19.42;55.42;100943.25;5050399;28;20484;-73
2023/07/05 11:23:09;;;;;;;18.55;3.30;;;;;;;19.79;58.77;100947.25;5051667;28;20106;-72
2023/07/05 11:25:56;;;;;;;4.82;2.28;;;;;;;20.32;56.28;100958.16;5052511;28;20031;-72